createdAt,value
2022-10-20T00:00:11.326Z,83.47
2022-10-20T00:01:11.319Z,83.47
2022-10-20T00:02:11.370Z,83.37
2022-10-20T00:03:11.317Z,83.47
2022-10-20T00:04:11.322Z,83.85
2022-10-20T00:05:11.307Z,83.85
2022-10-20T00:06:11.317Z,83.94
2022-10-20T00:07:11.304Z,83.85
2022-10-20T00:08:11.305Z,83.65
2022-10-20T00:09:11.375Z,84.04
2022-10-20T00:10:11.280Z,84.13
2022-10-20T00:11:11.278Z,83.94
2022-10-20T00:12:11.293Z,83.75
2022-10-20T00:13:11.259Z,83.75
2022-10-20T00:14:11.256Z,83.65
2022-10-20T00:15:11.282Z,83.94
2022-10-20T00:16:11.242Z,83.94
2022-10-20T00:17:11.238Z,84.23
2022-10-20T00:18:11.232Z,83.94
2022-10-20T00:19:11.235Z,83.85
2022-10-20T00:20:11.241Z,83.75
2022-10-20T00:21:11.228Z,83.75
2022-10-20T00:22:11.216Z,83.85
2022-10-20T00:23:11.228Z,83.94
2022-10-20T00:24:11.227Z,83.85
2022-10-20T00:25:11.198Z,84.42
2022-10-20T00:26:11.192Z,83.75
2022-10-20T00:27:11.187Z,83.94
2022-10-20T00:28:11.179Z,83.94
2022-10-20T00:29:11.202Z,83.75
2022-10-20T00:30:11.177Z,83.75
2022-10-20T00:31:11.179Z,83.37
2022-10-20T00:32:11.177Z,83.37
2022-10-20T00:33:11.156Z,83.47
2022-10-20T00:34:11.152Z,83.37
2022-10-20T00:35:11.139Z,83.75
2022-10-20T00:36:11.156Z,83.37
2022-10-20T00:37:11.129Z,83.65
2022-10-20T00:38:11.179Z,83.28
2022-10-20T00:39:11.131Z,83.62
2022-10-20T00:40:11.134Z,83.42
2022-10-20T00:41:11.104Z,83.81
2022-10-20T00:42:11.123Z,83.62
2022-10-20T00:43:11.096Z,83.90
2022-10-20T00:44:11.093Z,84.00
2022-10-20T00:45:11.115Z,84.09
2022-10-20T00:46:11.086Z,84.09
2022-10-20T00:47:11.086Z,83.71
2022-10-20T00:48:11.076Z,83.81
2022-10-20T00:49:11.084Z,84.00
2022-10-20T00:50:11.099Z,84.19
2022-10-20T00:51:11.055Z,84.09
2022-10-20T00:52:11.050Z,84.28
2022-10-20T00:53:11.041Z,84.38
2022-10-20T00:54:11.038Z,84.00
2022-10-20T00:55:11.028Z,84.19
2022-10-20T00:56:11.028Z,84.28
2022-10-20T00:57:11.028Z,84.38
2022-10-20T00:58:11.013Z,84.47
2022-10-20T00:59:11.017Z,84.47
2022-10-20T01:00:11.000Z,84.28
2022-10-20T01:01:11.121Z,84.66
2022-10-20T01:02:11.009Z,84.38
2022-10-20T01:03:10.998Z,84.28
2022-10-20T01:04:10.986Z,84.28
2022-10-20T01:05:10.982Z,84.38
2022-10-20T01:06:11.042Z,84.00
2022-10-20T01:07:10.962Z,84.47
2022-10-20T01:08:10.956Z,84.28
2022-10-20T01:09:11.038Z,84.47
2022-10-20T01:10:10.962Z,83.90
2022-10-20T01:11:10.955Z,83.81
2022-10-20T01:12:10.945Z,83.71
2022-10-20T01:13:10.951Z,84.47
2022-10-20T01:14:10.959Z,84.47
2022-10-20T01:15:10.962Z,84.19
2022-10-20T01:16:10.914Z,84.76
2022-10-20T01:17:10.919Z,85.04
2022-10-20T01:18:10.907Z,85.14
2022-10-20T01:19:10.901Z,84.76
2022-10-20T01:20:10.899Z,84.95
2022-10-20T01:21:10.892Z,84.56
2022-10-20T01:22:10.922Z,85.04
2022-10-20T01:23:10.904Z,85.24
2022-10-20T01:24:10.867Z,84.76
2022-10-20T01:25:10.866Z,85.04
2022-10-20T01:26:10.856Z,85.24
2022-10-20T01:27:10.878Z,85.04
2022-10-20T01:28:10.852Z,85.33
2022-10-20T01:29:10.863Z,84.95
2022-10-20T01:30:10.835Z,84.76
2022-10-20T01:31:10.834Z,85.04
2022-10-20T01:32:10.835Z,85.04
2022-10-20T01:33:10.822Z,84.95
2022-10-20T01:34:10.820Z,84.56
2022-10-20T01:35:10.818Z,84.85
2022-10-20T01:36:10.820Z,84.76
2022-10-20T01:37:10.827Z,85.04
2022-10-20T01:38:10.800Z,85.04
2022-10-20T01:39:10.790Z,84.76
2022-10-20T01:40:10.799Z,85.14
2022-10-20T01:41:10.776Z,84.85
2022-10-20T01:42:10.768Z,84.95
2022-10-20T01:43:10.772Z,84.95
2022-10-20T01:44:10.761Z,85.24
2022-10-20T01:45:10.752Z,84.85
2022-10-20T01:46:10.787Z,85.33
2022-10-20T01:47:10.749Z,85.24
2022-10-20T01:48:10.747Z,84.95
2022-10-20T01:49:10.729Z,85.24
2022-10-20T01:50:10.732Z,84.66
2022-10-20T01:51:10.730Z,84.43
2022-10-20T01:52:10.725Z,84.38
2022-10-20T01:53:10.727Z,84.52
2022-10-20T01:54:10.724Z,84.95
2022-10-20T01:55:10.734Z,84.76
2022-10-20T01:56:10.710Z,85.24
2022-10-20T01:57:10.701Z,85.24
2022-10-20T01:58:10.681Z,85.24
2022-10-20T01:59:10.675Z,85.10
2022-10-20T02:00:10.678Z,85.04
2022-10-20T02:01:10.671Z,85.24
2022-10-20T02:02:10.665Z,84.81
2022-10-20T02:03:10.684Z,85.24
2022-10-20T02:04:10.664Z,85.10
2022-10-20T02:05:10.649Z,85.61
2022-10-20T02:06:10.642Z,85.47
2022-10-20T02:07:10.638Z,85.28
2022-10-20T02:08:10.642Z,85.57
2022-10-20T02:09:10.628Z,85.57
2022-10-20T02:10:10.665Z,85.28
2022-10-20T02:11:10.607Z,85.10
2022-10-20T02:12:10.613Z,85.57
2022-10-20T02:13:10.603Z,85.19
2022-10-20T02:14:10.607Z,85.47
2022-10-20T02:15:10.580Z,85.57
2022-10-20T02:16:10.583Z,85.19
2022-10-20T02:17:10.577Z,85.28
2022-10-20T02:18:10.600Z,85.66
2022-10-20T02:19:10.573Z,85.57
2022-10-20T02:20:10.588Z,85.66
2022-10-20T02:21:10.574Z,85.76
2022-10-20T02:22:10.544Z,85.24
2022-10-20T02:23:10.541Z,85.33
2022-10-20T02:24:10.525Z,85.66
2022-10-20T02:25:10.548Z,85.19
2022-10-20T02:26:10.528Z,85.19
2022-10-20T02:27:10.536Z,85.10
2022-10-20T02:28:10.516Z,84.91
2022-10-20T02:29:10.502Z,85.57
2022-10-20T02:30:10.519Z,85.66
2022-10-20T02:31:10.491Z,85.66
2022-10-20T02:32:10.486Z,85.57
2022-10-20T02:33:10.483Z,85.57
2022-10-20T02:34:10.482Z,85.28
2022-10-20T02:35:10.477Z,85.66
2022-10-20T02:36:10.467Z,86.05
2022-10-20T02:37:10.525Z,86.05
2022-10-20T02:38:10.460Z,86.24
2022-10-20T02:39:10.453Z,85.47
2022-10-20T02:40:10.447Z,85.47
2022-10-20T02:41:10.437Z,85.19
2022-10-20T02:42:10.445Z,86.24
2022-10-20T02:43:10.444Z,86.14
2022-10-20T02:44:10.418Z,86.24
2022-10-20T02:45:10.412Z,86.05
2022-10-20T02:46:10.456Z,86.14
2022-10-20T02:47:10.426Z,85.47
2022-10-20T02:48:10.397Z,85.38
2022-10-20T02:49:10.389Z,85.86
2022-10-20T02:50:10.393Z,85.86
2022-10-20T02:51:10.386Z,85.95
2022-10-20T02:52:10.372Z,86.43
2022-10-20T02:53:10.371Z,85.95
2022-10-20T02:54:10.361Z,86.14
2022-10-20T02:55:10.380Z,85.38
2022-10-20T02:56:10.346Z,85.66
2022-10-20T02:57:10.356Z,85.57
2022-10-20T02:58:10.342Z,85.28
2022-10-20T02:59:10.342Z,85.57
2022-10-20T03:00:10.339Z,85.19
2022-10-20T03:01:10.328Z,85.57
2022-10-20T03:02:10.370Z,85.00
2022-10-20T03:03:10.302Z,85.19
2022-10-20T03:04:10.298Z,85.57
2022-10-20T03:05:10.308Z,85.57
2022-10-20T03:06:10.309Z,85.28
2022-10-20T03:07:10.282Z,85.47
2022-10-20T03:08:10.284Z,85.28
2022-10-20T03:09:10.282Z,85.19
2022-10-20T03:10:10.298Z,85.28
2022-10-20T03:11:10.288Z,85.57
2022-10-20T03:12:10.264Z,85.57
2022-10-20T03:13:10.278Z,85.28
2022-10-20T03:14:10.263Z,85.57
2022-10-20T03:15:10.265Z,85.57
2022-10-20T03:16:10.251Z,85.57
2022-10-20T03:17:10.232Z,85.47
2022-10-20T03:18:10.239Z,85.10
2022-10-20T03:19:11.664Z,85.00
2022-10-20T03:20:10.224Z,85.19
2022-10-20T03:21:10.260Z,84.62
2022-10-20T03:22:10.259Z,85.10
2022-10-20T03:23:10.200Z,85.00
2022-10-20T03:24:10.186Z,85.86
2022-10-20T03:25:10.186Z,85.19
2022-10-20T03:26:10.175Z,85.10
2022-10-20T03:27:10.165Z,85.28
2022-10-20T03:28:10.162Z,85.66
2022-10-20T03:29:10.196Z,86.24
2022-10-20T03:30:10.200Z,86.14
2022-10-20T03:31:10.167Z,86.05
2022-10-20T03:32:10.157Z,85.86
2022-10-20T03:33:10.142Z,86.05
2022-10-20T03:34:10.131Z,86.14
2022-10-20T03:35:10.121Z,86.05
2022-10-20T03:36:10.126Z,86.05
2022-10-20T03:37:10.114Z,85.86
2022-10-20T03:38:10.116Z,86.33
2022-10-20T03:39:10.111Z,86.33
2022-10-20T03:40:10.119Z,86.24
2022-10-20T03:41:10.089Z,85.86
2022-10-20T03:42:10.087Z,86.33
2022-10-20T03:43:10.077Z,85.95
2022-10-20T03:44:10.063Z,86.05
2022-10-20T03:45:12.642Z,85.86
2022-10-20T03:46:10.084Z,86.14
2022-10-20T03:47:10.065Z,85.86
2022-10-20T03:48:10.041Z,86.14
2022-10-20T03:49:10.071Z,86.24
2022-10-20T03:50:10.039Z,85.95
2022-10-20T03:51:10.041Z,85.86
2022-10-20T03:52:10.026Z,85.95
2022-10-20T03:53:10.019Z,85.86
2022-10-20T03:54:10.040Z,86.52
2022-10-20T03:55:10.023Z,86.43
2022-10-20T03:56:10.011Z,86.52
2022-10-20T03:57:09.983Z,86.61
2022-10-20T03:58:09.982Z,86.24
2022-10-20T03:59:10.000Z,86.47
2022-10-20T04:00:09.974Z,86.61
2022-10-20T04:01:09.986Z,86.52
2022-10-20T04:02:09.998Z,86.76
2022-10-20T04:03:09.954Z,87.09
2022-10-20T04:04:09.948Z,86.80
2022-10-20T04:05:09.950Z,86.80
2022-10-20T04:06:09.943Z,86.99
2022-10-20T04:07:09.965Z,86.61
2022-10-20T04:08:09.972Z,86.80
2022-10-20T04:09:09.969Z,86.99
2022-10-20T04:10:09.924Z,86.90
2022-10-20T04:11:09.942Z,86.99
2022-10-20T04:12:09.902Z,86.71
2022-10-20T04:13:09.900Z,85.86
2022-10-20T04:14:09.903Z,85.86
2022-10-20T04:15:09.893Z,86.38
2022-10-20T04:16:09.879Z,86.52
2022-10-20T04:17:09.871Z,86.52
2022-10-20T04:18:09.880Z,86.33
2022-10-20T04:19:09.872Z,86.29
2022-10-20T04:20:09.856Z,86.29
2022-10-20T04:21:09.860Z,86.29
2022-10-20T04:22:09.852Z,86.57
2022-10-20T04:23:09.854Z,86.19
2022-10-20T04:24:09.829Z,86.19
2022-10-20T04:25:09.831Z,86.67
2022-10-20T04:26:09.838Z,86.95
2022-10-20T04:27:09.812Z,87.09
2022-10-20T04:28:09.803Z,86.76
2022-10-20T04:29:09.799Z,86.47
2022-10-20T04:30:09.803Z,86.47
2022-10-20T04:31:09.790Z,86.47
2022-10-20T04:32:09.803Z,86.47
2022-10-20T04:33:09.775Z,86.67
2022-10-20T04:34:09.777Z,86.95
2022-10-20T04:35:09.762Z,86.95
2022-10-20T04:36:09.750Z,86.47
2022-10-20T04:37:09.755Z,87.14
2022-10-20T04:38:09.764Z,87.24
2022-10-20T04:39:09.743Z,87.05
2022-10-20T04:40:09.734Z,86.95
2022-10-20T04:41:09.726Z,86.95
2022-10-20T04:42:09.717Z,86.19
2022-10-20T04:43:09.714Z,86.95
2022-10-20T04:44:09.700Z,87.24
2022-10-20T04:45:09.736Z,86.86
2022-10-20T04:46:09.701Z,86.95
2022-10-20T04:47:09.690Z,87.05
2022-10-20T04:48:09.699Z,87.14
2022-10-20T04:49:09.691Z,86.86
2022-10-20T04:50:09.669Z,87.43
2022-10-20T04:51:09.665Z,87.34
2022-10-20T04:52:09.691Z,87.34
2022-10-20T04:53:09.661Z,87.14
2022-10-20T04:54:09.660Z,87.52
2022-10-20T04:55:09.659Z,87.34
2022-10-20T04:56:09.638Z,87.24
2022-10-20T04:57:09.643Z,87.62
2022-10-20T04:58:09.617Z,87.14
2022-10-20T04:59:12.649Z,87.05
2022-10-20T05:00:09.618Z,86.95
2022-10-20T05:01:09.604Z,87.43
2022-10-20T05:02:09.609Z,87.43
2022-10-20T05:04:09.621Z,87.14
2022-10-20T05:05:09.599Z,87.05
2022-10-20T05:06:09.575Z,87.05
2022-10-20T05:07:09.565Z,86.95
2022-10-20T05:08:09.582Z,87.05
2022-10-20T05:09:09.601Z,86.95
2022-10-20T05:10:09.573Z,87.34
2022-10-20T05:11:09.540Z,87.52
2022-10-20T05:12:09.646Z,87.90
2022-10-20T05:13:09.551Z,87.81
2022-10-20T05:14:09.516Z,87.81
2022-10-20T05:15:09.522Z,88.09
2022-10-20T05:16:09.518Z,88.19
2022-10-20T05:17:10.110Z,87.71
2022-10-20T05:18:09.506Z,87.24
2022-10-20T05:19:09.490Z,87.34
2022-10-20T05:20:09.499Z,87.43
2022-10-20T05:21:10.187Z,87.24
2022-10-20T05:22:09.477Z,87.43
2022-10-20T05:23:09.478Z,87.34
2022-10-20T05:24:09.453Z,87.14
2022-10-20T05:25:36.216Z,87.14
2022-10-20T05:26:09.447Z,87.62
2022-10-20T05:27:09.445Z,87.24
2022-10-20T05:28:09.433Z,87.52
2022-10-20T05:29:09.445Z,87.90
2022-10-20T05:30:09.417Z,87.71
2022-10-20T05:31:09.423Z,87.43
2022-10-20T05:32:09.417Z,87.90
2022-10-20T05:33:09.406Z,87.90
2022-10-20T05:34:09.410Z,87.24
2022-10-20T05:35:09.400Z,87.24
2022-10-20T05:36:09.381Z,87.24
2022-10-20T05:37:09.378Z,87.43
2022-10-20T05:38:09.372Z,86.76
2022-10-20T05:39:09.376Z,87.05
2022-10-20T05:40:09.366Z,86.86
2022-10-20T05:41:09.354Z,87.34
2022-10-20T05:42:09.355Z,87.24
2022-10-20T05:43:09.358Z,87.43
2022-10-20T05:44:09.343Z,87.43
2022-10-20T05:45:09.338Z,87.43
2022-10-20T05:46:09.324Z,87.43
2022-10-20T05:47:09.307Z,87.34
2022-10-20T05:48:09.310Z,87.34
2022-10-20T05:49:09.317Z,87.34
2022-10-20T05:50:09.300Z,87.71
2022-10-20T05:51:12.031Z,87.24
2022-10-20T05:52:09.288Z,87.43
2022-10-20T05:53:09.276Z,87.52
2022-10-20T05:54:09.284Z,87.90
2022-10-20T05:55:09.275Z,87.90
2022-10-20T05:56:09.254Z,87.90
2022-10-20T05:57:09.255Z,87.62
2022-10-20T05:58:09.255Z,87.71
2022-10-20T05:59:09.249Z,87.90
2022-10-20T06:00:09.272Z,87.43
2022-10-20T06:01:09.218Z,87.43
2022-10-20T06:02:09.232Z,87.24
2022-10-20T06:03:09.236Z,87.43
2022-10-20T06:04:09.208Z,87.14
2022-10-20T06:05:09.214Z,87.24
2022-10-20T06:06:09.209Z,87.34
2022-10-20T06:07:09.212Z,86.47
2022-10-20T06:08:09.201Z,86.95
2022-10-20T06:09:09.235Z,86.57
2022-10-20T06:10:09.161Z,86.86
2022-10-20T06:11:09.191Z,86.95
2022-10-20T06:13:09.222Z,87.71
2022-10-20T06:14:09.153Z,87.62
2022-10-20T06:15:09.133Z,88.00
2022-10-20T06:16:09.131Z,87.90
2022-10-20T06:17:09.122Z,88.47
2022-10-20T06:18:09.178Z,88.28
2022-10-20T06:19:09.154Z,88.47
2022-10-20T06:20:09.133Z,88.47
2022-10-20T06:21:09.132Z,88.47
2022-10-20T06:22:09.105Z,88.38
2022-10-20T06:23:09.102Z,88.47
2022-10-20T06:24:09.086Z,88.00
2022-10-20T06:25:09.085Z,88.28
2022-10-20T06:26:09.077Z,88.00
2022-10-20T06:27:09.088Z,88.19
2022-10-20T06:28:09.104Z,87.71
2022-10-20T06:29:09.079Z,88.00
2022-10-20T06:30:09.054Z,87.90
2022-10-20T06:31:09.094Z,87.90
2022-10-20T06:32:09.095Z,88.09
2022-10-20T06:33:09.130Z,88.28
2022-10-20T06:34:09.063Z,88.00
2022-10-20T06:35:09.047Z,87.90
2022-10-20T06:36:09.046Z,90.37
2022-10-20T06:37:09.006Z,95.84
2022-10-20T06:38:08.993Z,99.55
2022-10-20T06:39:09.003Z,99.99
2022-10-20T06:40:08.988Z,99.99
2022-10-20T06:41:08.996Z,99.99
2022-10-20T06:42:11.339Z,99.99
2022-10-20T06:43:09.009Z,99.99
2022-10-20T06:44:09.002Z,99.99
2022-10-20T06:45:08.980Z,99.99
2022-10-20T06:46:08.952Z,97.55
2022-10-20T06:47:09.000Z,94.13
2022-10-20T06:48:08.950Z,90.08
2022-10-20T06:49:08.946Z,88.85
2022-10-20T06:50:08.933Z,87.42
2022-10-20T06:51:08.963Z,86.38
2022-10-20T06:53:08.905Z,86.33
2022-10-20T06:54:08.906Z,85.76
2022-10-20T06:55:08.919Z,85.86
2022-10-20T06:56:08.944Z,85.95
2022-10-20T06:57:09.009Z,86.24
2022-10-20T06:58:08.881Z,86.33
2022-10-20T06:59:08.923Z,86.43
2022-10-20T07:00:08.862Z,86.24
2022-10-20T07:01:11.089Z,86.71
2022-10-20T07:02:08.949Z,86.99
2022-10-20T07:03:08.846Z,86.99
2022-10-20T07:04:08.835Z,86.99
2022-10-20T07:05:08.841Z,86.99
2022-10-20T07:06:08.829Z,86.71
2022-10-20T07:07:08.851Z,87.57
2022-10-20T07:08:08.829Z,87.28
2022-10-20T07:09:08.883Z,87.28
2022-10-20T07:10:08.812Z,87.95
2022-10-20T07:11:08.914Z,87.76
2022-10-20T07:12:08.797Z,87.85
2022-10-20T07:13:08.831Z,87.76
2022-10-20T07:14:08.779Z,88.04
2022-10-20T07:15:08.790Z,87.95
2022-10-20T07:16:08.779Z,87.76
2022-10-20T07:17:08.764Z,87.76
2022-10-20T07:18:08.759Z,87.66
2022-10-20T07:19:08.755Z,88.33
2022-10-20T07:20:08.759Z,87.85
2022-10-20T07:21:08.749Z,87.66
2022-10-20T07:22:08.751Z,87.57
2022-10-20T07:23:08.736Z,87.85
2022-10-20T07:24:08.735Z,88.13
2022-10-20T07:25:08.718Z,88.13
2022-10-20T07:26:08.712Z,87.76
2022-10-20T07:27:08.742Z,87.66
2022-10-20T07:28:08.701Z,87.76
2022-10-20T07:29:10.870Z,87.85
2022-10-20T07:30:08.722Z,88.23
2022-10-20T07:31:08.702Z,88.33
2022-10-20T07:32:08.681Z,87.95
2022-10-20T07:33:08.728Z,88.04
2022-10-20T07:34:26.269Z,88.33
2022-10-20T07:35:08.674Z,89.09
2022-10-20T07:36:08.667Z,91.89
2022-10-20T07:37:08.669Z,95.03
2022-10-20T07:38:08.662Z,97.84
2022-10-20T07:39:08.710Z,98.32
2022-10-20T07:40:08.687Z,99.99
2022-10-20T07:41:08.628Z,99.99
2022-10-20T07:42:08.617Z,99.99
2022-10-20T07:43:08.620Z,99.98
2022-10-20T07:44:08.627Z,96.36
2022-10-20T07:45:08.617Z,93.93
2022-10-20T07:46:08.666Z,90.31
2022-10-20T07:47:08.633Z,87.21
2022-10-20T07:48:08.646Z,85.12
2022-10-20T07:49:39.253Z,82.49
2022-10-20T07:50:08.635Z,80.43
2022-10-20T07:51:08.676Z,79.23
2022-10-20T07:52:08.588Z,76.40
2022-10-20T07:53:08.590Z,72.72
2022-10-20T07:54:08.629Z,71.03
2022-10-20T07:55:33.407Z,68.35
2022-10-20T07:56:08.610Z,67.59
2022-10-20T07:57:08.598Z,67.05
2022-10-20T07:58:08.584Z,65.71
2022-10-20T07:59:08.588Z,64.69
2022-10-20T08:00:08.608Z,64.69
2022-10-20T08:01:08.609Z,63.29
2022-10-20T08:02:08.709Z,63.39
2022-10-20T08:03:08.619Z,63.29
2022-10-20T08:04:08.613Z,62.26
2022-10-20T08:05:08.616Z,61.21
2022-10-20T08:06:08.676Z,61.05
2022-10-20T08:07:08.632Z,59.71
2022-10-20T08:08:08.639Z,59.16
2022-10-20T08:09:08.667Z,58.49
2022-10-20T08:10:08.650Z,58.30
2022-10-20T08:11:10.389Z,57.72
2022-10-20T08:12:08.682Z,57.34
2022-10-20T08:13:08.798Z,56.29
2022-10-20T08:14:08.724Z,56.83
2022-10-20T08:15:13.070Z,57.21
2022-10-20T08:16:11.071Z,57.79
2022-10-20T08:17:08.748Z,58.17
2022-10-20T08:18:08.733Z,58.37
2022-10-20T08:19:12.638Z,58.56
2022-10-20T08:20:12.073Z,57.98
2022-10-20T08:21:08.755Z,57.41
2022-10-20T08:22:08.776Z,57.79
2022-10-20T08:23:08.801Z,57.41
2022-10-20T08:24:08.785Z,57.70
2022-10-20T08:25:08.819Z,57.31
2022-10-20T08:26:11.376Z,57.79
2022-10-20T08:27:08.820Z,57.12
2022-10-20T08:28:08.822Z,57.21
2022-10-20T08:29:08.839Z,57.89
2022-10-20T08:30:24.538Z,58.05
2022-10-20T08:31:08.942Z,58.34
2022-10-20T08:32:08.866Z,58.34
2022-10-20T08:33:08.874Z,58.31
2022-10-20T08:34:08.896Z,58.59
2022-10-20T08:35:08.906Z,59.27
2022-10-20T08:36:08.904Z,59.94
2022-10-20T08:37:09.055Z,60.10
2022-10-20T08:38:08.922Z,60.48
2022-10-20T08:39:08.938Z,61.22
2022-10-20T08:40:08.966Z,61.51
2022-10-20T08:41:08.982Z,62.65
2022-10-20T08:42:09.683Z,63.10
2022-10-20T08:43:08.979Z,64.05
2022-10-20T08:44:09.036Z,64.62
2022-10-20T08:45:09.027Z,65.30
2022-10-20T08:46:09.047Z,65.17
2022-10-20T08:47:09.035Z,65.64
2022-10-20T08:48:09.045Z,65.84
2022-10-20T08:49:09.023Z,66.70
2022-10-20T08:50:09.039Z,67.08
2022-10-20T08:51:09.045Z,67.65
2022-10-20T08:52:09.056Z,67.62
2022-10-20T08:53:09.059Z,67.33
2022-10-20T08:54:09.058Z,67.81
2022-10-20T08:55:09.091Z,68.00
2022-10-20T08:56:09.060Z,68.19
2022-10-20T08:57:09.062Z,68.63
2022-10-20T08:58:09.082Z,68.82
2022-10-20T08:59:09.099Z,69.31
2022-10-20T09:00:09.291Z,69.68
2022-10-20T09:01:09.084Z,70.83
2022-10-20T09:02:09.132Z,70.83
2022-10-20T09:03:09.105Z,71.69
2022-10-20T09:04:09.095Z,71.78
2022-10-20T09:05:09.118Z,72.36
2022-10-20T09:06:09.109Z,72.17
2022-10-20T09:07:09.194Z,72.07
2022-10-20T09:08:09.099Z,71.78
2022-10-20T09:09:09.129Z,71.84
2022-10-20T09:10:09.102Z,72.36
2022-10-20T09:11:09.097Z,72.23
2022-10-20T09:12:09.128Z,72.42
2022-10-20T09:13:09.093Z,72.32
2022-10-20T09:14:09.109Z,72.51
2022-10-20T09:15:09.136Z,72.71
2022-10-20T09:16:09.098Z,72.64
2022-10-20T09:17:11.445Z,72.51
2022-10-20T09:18:09.107Z,72.89
2022-10-20T09:19:09.115Z,73.12
2022-10-20T09:20:09.090Z,72.93
2022-10-20T09:21:09.105Z,72.64
2022-10-20T09:22:09.102Z,72.45
2022-10-20T09:23:28.363Z,72.74
2022-10-20T09:24:09.125Z,72.64
2022-10-20T09:25:09.120Z,73.12
2022-10-20T09:26:12.770Z,72.83
2022-10-20T09:27:09.079Z,72.64
2022-10-20T09:28:09.139Z,72.74
2022-10-20T09:29:13.343Z,72.74
2022-10-20T09:30:09.075Z,72.74
2022-10-20T09:31:09.101Z,72.36
2022-10-20T09:32:40.822Z,72.36
2022-10-20T09:33:09.074Z,72.17
2022-10-20T09:34:09.092Z,72.55
2022-10-20T09:35:09.073Z,72.26
2022-10-20T09:36:09.077Z,72.55
2022-10-20T09:37:09.078Z,72.74
2022-10-20T09:38:09.062Z,73.03
2022-10-20T09:39:09.074Z,73.12
2022-10-20T09:40:09.062Z,73.22
2022-10-20T09:41:09.049Z,72.83
2022-10-20T09:42:09.061Z,73.32
2022-10-20T09:43:09.066Z,72.99
2022-10-20T09:44:09.057Z,73.32
2022-10-20T09:45:09.079Z,73.18
2022-10-20T09:46:09.043Z,74.13
2022-10-20T09:47:09.039Z,74.52
2022-10-20T09:48:09.085Z,74.27
2022-10-20T09:49:09.081Z,74.37
2022-10-20T09:50:09.069Z,73.79
2022-10-20T09:51:09.080Z,74.17
2022-10-20T09:52:09.028Z,74.37
2022-10-20T09:53:09.021Z,73.60
2022-10-20T09:54:09.036Z,73.60
2022-10-20T09:55:09.013Z,73.79
2022-10-20T09:56:09.043Z,73.79
2022-10-20T09:57:09.078Z,73.69
2022-10-20T09:58:09.037Z,73.22
2022-10-20T09:59:09.024Z,72.93
2022-10-20T10:00:32.302Z,72.55
2022-10-20T10:01:09.085Z,72.55
2022-10-20T10:02:08.996Z,72.55
2022-10-20T10:03:09.010Z,72.45
2022-10-20T10:04:11.027Z,72.64
2022-10-20T10:05:08.997Z,72.64
2022-10-20T10:06:08.991Z,72.64
2022-10-20T10:07:08.995Z,72.64
2022-10-20T10:08:09.016Z,72.74
2022-10-20T10:09:09.011Z,72.45
2022-10-20T10:10:09.022Z,72.26
2022-10-20T10:11:09.021Z,72.36
2022-10-20T10:12:08.984Z,72.45
2022-10-20T10:13:08.994Z,72.93
2022-10-20T10:14:09.000Z,72.74
2022-10-20T10:15:08.992Z,72.83
2022-10-20T10:16:09.075Z,72.55
2022-10-20T10:17:08.970Z,72.74
2022-10-20T10:18:08.971Z,73.22
2022-10-20T10:19:09.001Z,73.03
2022-10-20T10:20:08.977Z,73.03
2022-10-20T10:21:08.972Z,72.74
2022-10-20T10:22:09.078Z,72.55
2022-10-20T10:23:08.993Z,72.83
2022-10-20T10:24:08.971Z,72.71
2022-10-20T10:25:08.934Z,72.23
2022-10-20T10:26:08.929Z,72.74
2022-10-20T10:27:08.934Z,72.64
2022-10-20T10:28:08.942Z,72.51
2022-10-20T10:29:08.955Z,72.32
2022-10-20T10:30:08.948Z,72.32
2022-10-20T10:31:08.940Z,72.64
2022-10-20T10:32:08.927Z,72.71
2022-10-20T10:33:08.927Z,72.93
2022-10-20T10:34:08.961Z,72.93
2022-10-20T10:35:08.934Z,72.74
2022-10-20T10:36:08.909Z,72.42
2022-10-20T10:37:08.934Z,72.61
2022-10-20T10:38:08.929Z,71.98
2022-10-20T10:39:08.943Z,72.07
2022-10-20T10:40:08.898Z,72.03
2022-10-20T10:41:08.898Z,72.45
2022-10-20T10:42:08.914Z,72.36
2022-10-20T10:43:08.924Z,72.61
2022-10-20T10:44:08.919Z,72.32
2022-10-20T10:45:08.887Z,72.55
2022-10-20T10:46:08.952Z,72.32
2022-10-20T10:47:08.903Z,72.32
2022-10-20T10:48:08.924Z,72.61
2022-10-20T10:49:08.894Z,72.71
2022-10-20T10:50:08.879Z,72.89
2022-10-20T10:51:08.883Z,72.89
2022-10-20T10:52:08.880Z,72.71
2022-10-20T10:53:08.860Z,72.51
2022-10-20T10:54:11.766Z,72.13
2022-10-20T10:55:11.738Z,72.61
2022-10-20T10:57:11.807Z,72.51
2022-10-20T10:58:08.875Z,72.80
2022-10-20T10:59:08.839Z,72.23
2022-10-20T11:00:08.846Z,72.71
2022-10-20T11:01:08.896Z,72.80
2022-10-20T11:02:08.845Z,72.23
2022-10-20T11:03:08.838Z,72.32
2022-10-20T11:04:08.866Z,72.26
2022-10-20T11:05:08.863Z,72.23
2022-10-20T11:06:08.832Z,72.03
2022-10-20T11:07:08.979Z,72.71
2022-10-20T11:08:08.820Z,72.55
2022-10-20T11:09:08.881Z,72.26
2022-10-20T11:10:08.818Z,72.07
2022-10-20T11:11:08.817Z,72.17
2022-10-20T11:12:08.804Z,71.88
2022-10-20T11:13:08.838Z,71.69
2022-10-20T11:14:08.978Z,71.88
2022-10-20T11:15:08.811Z,71.78
2022-10-20T11:16:08.813Z,71.59
2022-10-20T11:17:08.794Z,71.41
2022-10-20T11:18:08.802Z,71.41
2022-10-20T11:19:08.839Z,70.92
2022-10-20T11:20:08.812Z,70.64
2022-10-20T11:21:08.870Z,71.02
2022-10-20T11:22:10.615Z,71.02
2022-10-20T11:23:08.810Z,70.83
2022-10-20T11:24:08.758Z,70.73
2022-10-20T11:25:08.781Z,70.92
2022-10-20T11:26:08.756Z,71.02
2022-10-20T11:27:08.765Z,70.83
2022-10-20T11:28:08.750Z,70.92
2022-10-20T11:29:08.785Z,70.64
2022-10-20T11:30:08.798Z,69.59
2022-10-20T11:31:08.761Z,69.87
2022-10-20T11:32:08.765Z,69.68
2022-10-20T11:33:08.821Z,69.49
2022-10-20T11:34:08.736Z,70.36
2022-10-20T11:35:08.767Z,70.48
2022-10-20T11:36:08.798Z,70.20
2022-10-20T11:37:08.801Z,70.48
2022-10-20T11:38:08.802Z,70.39
2022-10-20T11:39:08.745Z,70.87
2022-10-20T11:40:08.947Z,70.39
2022-10-20T11:41:08.721Z,70.29
2022-10-20T11:42:08.813Z,69.53
2022-10-20T11:43:10.977Z,69.53
2022-10-20T11:44:08.720Z,69.34
2022-10-20T11:45:08.717Z,69.15
2022-10-20T11:46:08.725Z,68.96
2022-10-20T11:47:08.730Z,68.38
2022-10-20T11:48:08.726Z,67.91
2022-10-20T11:49:08.745Z,67.43
2022-10-20T11:50:08.775Z,66.85
2022-10-20T11:51:08.734Z,67.05
2022-10-20T11:52:08.700Z,67.33
2022-10-20T11:53:08.707Z,67.24
2022-10-20T11:54:08.690Z,67.52
2022-10-20T11:55:08.686Z,67.43
2022-10-20T11:56:08.690Z,67.71
2022-10-20T11:57:08.695Z,67.33
2022-10-20T11:58:08.684Z,67.14
2022-10-20T11:59:08.684Z,67.14
2022-10-20T12:00:08.776Z,67.24
2022-10-20T12:01:08.681Z,67.52
2022-10-20T12:02:08.710Z,67.24
2022-10-20T12:03:08.664Z,67.33
2022-10-20T12:04:08.662Z,66.85
2022-10-20T12:05:08.693Z,66.95
2022-10-20T12:06:10.144Z,66.66
2022-10-20T12:07:08.675Z,66.85
2022-10-20T12:08:28.293Z,67.52
2022-10-20T12:09:08.766Z,67.14
2022-10-20T12:10:08.671Z,66.56
2022-10-20T12:11:08.657Z,66.56
2022-10-20T12:12:08.652Z,66.47
2022-10-20T12:13:08.674Z,66.56
2022-10-20T12:14:08.708Z,66.47
2022-10-20T12:15:08.626Z,66.38
2022-10-20T12:16:08.653Z,66.47
2022-10-20T12:17:08.625Z,67.14
2022-10-20T12:18:08.615Z,67.33
2022-10-20T12:19:08.636Z,67.33
2022-10-20T12:20:08.657Z,67.71
2022-10-20T12:21:08.626Z,67.52
2022-10-20T12:22:08.630Z,67.14
2022-10-20T12:23:08.632Z,66.85
2022-10-20T12:24:08.604Z,66.76
2022-10-20T12:25:08.607Z,67.14
2022-10-20T12:26:08.611Z,66.85
2022-10-20T12:27:08.622Z,67.14
2022-10-20T12:28:08.613Z,66.95
2022-10-20T12:29:08.607Z,66.95
2022-10-20T12:30:08.588Z,67.24
2022-10-20T12:31:08.616Z,67.05
2022-10-20T12:32:08.577Z,66.85
2022-10-20T12:33:08.589Z,66.89
2022-10-20T12:34:08.588Z,67.05
2022-10-20T12:35:08.572Z,66.95
2022-10-20T12:36:08.569Z,67.05
2022-10-20T12:37:08.590Z,66.66
2022-10-20T12:38:08.568Z,67.14
2022-10-20T12:39:08.559Z,66.76
2022-10-20T12:40:08.556Z,67.14
2022-10-20T12:41:08.554Z,66.76
2022-10-20T12:42:08.566Z,66.56
2022-10-20T12:43:08.564Z,66.56
2022-10-20T12:44:08.547Z,66.60
2022-10-20T12:45:08.582Z,66.47
2022-10-20T12:46:08.564Z,66.99
2022-10-20T12:47:08.547Z,66.60
2022-10-20T12:48:08.593Z,66.89
2022-10-20T12:49:11.760Z,66.70
2022-10-20T12:50:08.576Z,66.79
2022-10-20T12:51:08.542Z,66.60
2022-10-20T12:52:08.528Z,66.03
2022-10-20T12:53:08.551Z,66.13
2022-10-20T12:54:08.532Z,66.31
2022-10-20T12:55:08.516Z,65.74
2022-10-20T12:56:08.520Z,65.93